Terminal Aerodrome Forecast
Issued by NWS

Home | Current Version | Previous Version | Text Only | Print | Product List | Glossary On
Versions: 1 2 3 4 5 6 7 8 9 10 11 12 13 14 15 16 17 18 19 20 21 22 23 24 25 26 27 28
000
FTUS41 KCTP 232341
TAFAOO
TAF
KAOO 232341Z 2400/2424 19004KT 3SM BR VCSH OVC002 WS020/23042KT
     FM240500 VRB05KT 4SM -DZ BR OVC015 WS020/23042KT
     FM241200 34003KT 6SM BR OVC015
     FM241500 02003KT 1 1/2SM -RA BR OVC010=

USA.gov is the U.S. government's official web portal to all federal, state and local government web resources and services.